Time;durP1;ratioP1;P1;durP2;ratioP2;P2;SDS_P1;SDS_P2;PMS_P1;PMS_P2;Temp;Humidity;BMP_temperature;BMP_pressure;BME280_temperature;BME280_humidity;BME280_pressure;Samples;Min_cycle;Max_cycle;Signal;HPM_P1;HPM_P2
2022/09/30 00:00:50;;;;;;;3.47;1.23;;;18.90;71.80;;;;;;4962795;28;20530;-60
2022/09/30 00:03:15;;;;;;;5.00;1.40;;;18.90;71.90;;;;;;4963914;28;20027;-60
2022/09/30 00:05:41;;;;;;;3.40;1.10;;;18.90;71.90;;;;;;4960394;28;20047;-60
2022/09/30 00:08:07;;;;;;;4.15;1.40;;;18.90;71.90;;;;;;4962645;28;20023;-60
2022/09/30 00:10:32;;;;;;;3.05;1.30;;;18.90;71.90;;;;;;4959616;28;20035;-60
2022/09/30 00:12:58;;;;;;;2.97;1.33;;;18.90;72.00;;;;;;4958543;28;20026;-60
2022/09/30 00:15:23;;;;;;;3.53;1.20;;;18.90;72.00;;;;;;4962301;28;20483;-60
2022/09/30 00:17:49;;;;;;;5.03;1.30;;;18.90;71.90;;;;;;4964524;28;20039;-60
2022/09/30 00:20:16;;;;;;;3.08;1.15;;;18.90;72.00;;;;;;4964204;28;20027;-59
2022/09/30 00:22:43;;;;;;;3.92;1.42;;;18.90;71.90;;;;;;4959452;28;20027;-60
2022/09/30 00:25:09;;;;;;;3.20;1.30;;;18.90;71.90;;;;;;4960803;28;20081;-60
2022/09/30 00:27:35;;;;;;;5.53;1.30;;;18.90;72.00;;;;;;4961205;28;20048;-60
2022/09/30 00:30:00;;;;;;;3.42;1.15;;;18.80;71.90;;;;;;4963471;28;20057;-60
2022/09/30 00:32:27;;;;;;;3.55;1.35;;;18.80;71.90;;;;;;4964583;28;20518;-60
2022/09/30 00:34:53;;;;;;;3.85;1.05;;;18.80;71.90;;;;;;4960482;28;20035;-60
2022/09/30 00:37:19;;;;;;;4.50;1.38;;;18.80;71.90;;;;;;4963660;28;20027;-59
2022/09/30 00:39:44;;;;;;;3.10;1.13;;;18.80;71.90;;;;;;4960226;28;20037;-60
2022/09/30 00:42:14;;;;;;;3.55;1.25;;;18.80;71.90;;;;;;4962166;28;20023;-60
2022/09/30 00:45:02;;;;;;;3.55;1.40;;;18.80;71.90;;;;;;4958597;28;20554;-60
2022/09/30 00:47:56;;;;;;;4.72;1.30;;;18.80;71.90;;;;;;4960433;28;20054;-60
2022/09/30 00:50:30;;;;;;;3.72;1.25;;;18.80;71.90;;;;;;4964490;28;20110;-60
2022/09/30 00:52:58;;;;;;;4.50;1.40;;;18.80;71.90;;;;;;4961130;28;21985;-60
2022/09/30 00:55:40;;;;;;;2.92;1.20;;;18.70;71.90;;;;;;4962157;28;20073;-60
2022/09/30 00:58:07;;;;;;;4.15;1.33;;;18.70;71.90;;;;;;4945080;28;20034;-60
2022/09/30 01:00:33;;;;;;;4.68;1.30;;;18.70;71.90;;;;;;4963860;28;20031;-59
2022/09/30 01:02:59;;;;;;;3.25;1.20;;;18.70;71.90;;;;;;4958306;28;20782;-59
2022/09/30 01:05:25;;;;;;;3.53;1.42;;;18.70;72.00;;;;;;4951274;28;20113;-60
2022/09/30 01:07:51;;;;;;;4.00;1.08;;;18.70;71.90;;;;;;4962565;28;20428;-60
2022/09/30 01:10:17;;;;;;;5.55;1.48;;;18.70;71.90;;;;;;4966321;28;20030;-60
2022/09/30 01:12:42;;;;;;;4.05;1.50;;;18.70;71.90;;;;;;4964521;28;20041;-60
2022/09/30 01:15:08;;;;;;;5.72;1.40;;;18.70;71.90;;;;;;4965446;28;20214;-60
2022/09/30 01:18:03;;;;;;;4.93;1.30;;;18.70;72.00;;;;;;4964607;28;20444;-60
2022/09/30 01:20:41;;;;;;;3.77;1.30;;;18.70;71.90;;;;;;4964544;28;20471;-59
2022/09/30 01:23:56;;;;;;;3.58;1.30;;;18.70;71.90;;;;;;4966196;28;20061;-60
2022/09/30 01:26:43;;;;;;;3.53;1.38;;;18.60;71.90;;;;;;4964782;28;20624;-60
2022/09/30 01:29:46;;;;;;;4.05;1.10;;;18.60;72.00;;;;;;4964620;28;20025;-60
2022/09/30 01:32:50;;;;;;;3.80;1.17;;;18.70;71.90;;;;;;4982116;28;20039;-60
2022/09/30 01:35:25;;;;;;;3.13;1.30;;;18.60;71.90;;;;;;4958284;28;20123;-59
2022/09/30 01:38:06;;;;;;;2.78;1.13;;;18.60;72.00;;;;;;4957930;28;20042;-59
2022/09/30 01:40:44;;;;;;;4.05;1.20;;;18.60;71.90;;;;;;4963071;28;20524;-60
2022/09/30 01:43:36;;;;;;;3.97;1.20;;;18.60;71.90;;;;;;4957487;28;20034;-60
2022/09/30 01:46:18;;;;;;;5.70;1.10;;;18.60;72.00;;;;;;4959499;28;20078;-60
2022/09/30 01:49:19;;;;;;;3.03;1.23;;;18.60;71.90;;;;;;4959376;28;20037;-60
2022/09/30 01:51:49;;;;;;;4.85;1.15;;;18.50;71.90;;;;;;4911415;29;20408;-60
2022/09/30 01:54:24;;;;;;;3.58;1.10;;;18.50;71.90;;;;;;4926335;29;20035;-60
2022/09/30 01:56:53;;;;;;;3.42;1.45;;;18.50;71.90;;;;;;4906056;29;20130;-60
2022/09/30 01:59:56;;;;;;;2.63;1.20;;;18.50;71.90;;;;;;4907028;29;20111;-60
2022/09/30 02:02:25;;;;;;;3.47;1.10;;;18.50;71.90;;;;;;4904982;29;20047;-60
2022/09/30 02:05:06;;;;;;;3.65;1.20;;;18.50;71.90;;;;;;4887615;29;20447;-60
2022/09/30 02:07:40;;;;;;;3.35;1.27;;;18.50;71.90;;;;;;4907974;29;20875;-60
2022/09/30 02:10:11;;;;;;;;;;;18.50;71.90;;;;;;4903911;29;20052;-59
2022/09/30 02:12:38;;;;;;;2.92;1.10;;;18.50;71.90;;;;;;4923240;29;20406;-60
2022/09/30 02:15:05;;;;;;;3.97;1.40;;;18.50;71.90;;;;;;4907523;29;20701;-60
2022/09/30 02:17:33;;;;;;;2.38;1.13;;;18.50;71.80;;;;;;4903884;29;20666;-60
2022/09/30 02:20:00;;;;;;;4.40;1.08;;;18.50;71.80;;;;;;4890157;29;20031;-60
2022/09/30 02:22:43;;;;;;;3.30;1.15;;;18.50;71.70;;;;;;4903433;29;20036;-60
2022/09/30 02:25:19;;;;;;;5.05;1.05;;;18.50;71.80;;;;;;4908300;29;20134;-60
2022/09/30 02:27:48;;;;;;;3.35;1.20;;;18.50;71.90;;;;;;4904433;28;20036;-59
2022/09/30 02:30:13;;;;;;;2.30;1.15;;;18.40;71.80;;;;;;4948332;28;20053;-60
2022/09/30 02:32:40;;;;;;;3.25;1.30;;;18.40;71.90;;;;;;4942258;28;20027;-60
2022/09/30 02:35:14;;;;;;;1.52;0.93;;;18.40;71.80;;;;;;4983356;28;20045;-59
2022/09/30 02:37:41;;;;;;;3.03;0.90;;;18.40;71.70;;;;;;4981207;28;20058;-60
2022/09/30 02:40:12;;;;;;;2.35;0.95;;;18.40;71.80;;;;;;4965812;28;20031;-59
2022/09/30 02:42:38;;;;;;;2.53;1.20;;;18.40;71.80;;;;;;4943866;28;20378;-60
2022/09/30 02:45:15;;;;;;;2.25;1.20;;;18.40;71.80;;;;;;4964794;28;20050;-59
2022/09/30 02:47:50;;;;;;;3.55;1.23;;;18.40;71.80;;;;;;4961077;28;20042;-60
2022/09/30 02:50:17;;;;;;;3.47;1.00;;;18.40;72.80;;;;;;4962689;28;20384;-60
2022/09/30 02:52:51;;;;;;;3.10;1.02;;;18.40;71.80;;;;;;4960232;28;20117;-59
2022/09/30 02:55:30;;;;;;;5.57;1.35;;;18.40;71.80;;;;;;4964960;28;20039;-60
2022/09/30 02:58:07;;;;;;;3.13;1.30;;;18.40;72.00;;;;;;4963679;28;20030;-59
2022/09/30 03:00:33;;;;;;;8.43;1.40;;;18.40;72.10;;;;;;4963496;28;20026;-60
2022/09/30 03:03:02;;;;;;;3.50;1.33;;;18.40;72.30;;;;;;4961221;28;20034;-59
2022/09/30 03:05:28;;;;;;;4.30;1.30;;;18.50;72.40;;;;;;4960483;28;20038;-60
2022/09/30 03:07:54;;;;;;;5.65;1.67;;;18.40;72.20;;;;;;4959942;28;20026;-59
2022/09/30 03:10:19;;;;;;;12.40;1.52;;;18.40;72.20;;;;;;4955240;28;20030;-59
2022/09/30 03:13:30;;;;;;;4.18;1.30;;;18.40;72.30;;;;;;4960652;28;20524;-60
2022/09/30 03:16:04;;;;;;;4.05;1.75;;;18.40;72.50;;;;;;4963686;28;20031;-59
2022/09/30 03:19:02;;;;;;;5.63;1.50;;;18.30;72.30;;;;;;4955430;28;20102;-59
2022/09/30 03:21:39;;;;;;;7.00;1.83;;;18.30;72.30;;;;;;4951647;28;20038;-59
2022/09/30 03:24:14;;;;;;;4.55;1.63;;;18.30;72.30;;;;;;4963351;28;20377;-60
2022/09/30 03:27:03;;;;;;;3.20;1.33;;;18.30;72.30;;;;;;4961703;28;20101;-60
2022/09/30 03:29:35;;;;;;;5.32;1.27;;;18.30;72.20;;;;;;4955773;28;20145;-59
2022/09/30 03:32:10;;;;;;;6.18;1.52;;;18.30;72.20;;;;;;4961032;28;20023;-60
2022/09/30 03:34:56;;;;;;;;;;;18.30;72.20;;;;;;4961871;28;20126;-59
2022/09/30 03:37:30;;;;;;;4.38;1.30;;;18.30;72.20;;;;;;4958914;28;19911;-59
2022/09/30 03:40:09;;;;;;;5.47;1.40;;;18.30;72.20;;;;;;4959212;28;20046;-60
2022/09/30 03:42:42;;;;;;;4.20;1.40;;;18.30;72.20;;;;;;4957018;28;20432;-59
2022/09/30 03:45:16;;;;;;;5.72;1.27;;;18.30;72.20;;;;;;4960864;28;20063;-60
2022/09/30 03:47:49;;;;;;;3.28;1.13;;;18.30;72.30;;;;;;4939672;28;20055;-60
2022/09/30 03:50:18;;;;;;;4.00;1.40;;;18.30;72.20;;;;;;4956618;28;20078;-59
2022/09/30 03:52:43;;;;;;;4.97;1.35;;;18.20;72.20;;;;;;4943652;28;20031;-59
2022/09/30 03:55:10;;;;;;;3.47;1.60;;;18.20;73.20;;;;;;4955348;28;20041;-59
2022/09/30 03:57:36;;;;;;;4.07;1.45;;;18.20;72.20;;;;;;4960292;28;20098;-60
2022/09/30 04:00:01;;;;;;;3.55;1.40;;;18.20;72.20;;;;;;4958670;28;20034;-59
2022/09/30 04:02:28;;;;;;;4.60;1.30;;;18.20;72.10;;;;;;4959623;28;20023;-59
2022/09/30 04:04:54;;;;;;;4.10;1.15;;;18.20;72.10;;;;;;4961218;28;20039;-60
2022/09/30 04:07:19;;;;;;;4.35;1.40;;;18.20;72.10;;;;;;4963875;28;20791;-59
2022/09/30 04:09:45;;;;;;;5.72;1.45;;;18.20;72.10;;;;;;4956938;28;20634;-59
2022/09/30 04:12:10;;;;;;;3.88;1.42;;;18.20;72.20;;;;;;4962505;28;20399;-60
2022/09/30 04:14:36;;;;;;;5.18;1.30;;;18.20;72.20;;;;;;4960236;28;20456;-59
2022/09/30 04:17:03;;;;;;;5.07;1.42;;;18.20;72.20;;;;;;4956617;28;20039;-59
2022/09/30 04:19:29;;;;;;;3.35;1.30;;;18.20;72.20;;;;;;4961617;28;20053;-59
2022/09/30 04:21:54;;;;;;;4.22;1.40;;;18.20;72.20;;;;;;4957318;28;20160;-60
2022/09/30 04:24:20;;;;;;;4.63;1.30;;;18.20;72.20;;;;;;4957420;28;20572;-59
2022/09/30 04:26:46;;;;;;;3.40;1.30;;;18.20;72.20;;;;;;4959085;28;20455;-59
2022/09/30 04:29:12;;;;;;;2.92;1.30;;;18.20;72.20;;;;;;4956680;28;20031;-60
2022/09/30 04:31:37;;;;;;;3.35;1.25;;;18.10;72.20;;;;;;4960517;28;20043;-60
2022/09/30 04:34:03;;;;;;;3.78;1.40;;;18.10;72.20;;;;;;4959999;28;20487;-59
2022/09/30 04:36:29;;;;;;;4.30;1.55;;;18.10;72.10;;;;;;4956316;28;20023;-60
2022/09/30 04:38:54;;;;;;;5.47;1.50;;;18.10;72.10;;;;;;4957527;28;20090;-60
2022/09/30 04:41:20;;;;;;;3.38;1.20;;;18.10;72.10;;;;;;4967732;28;20413;-59
2022/09/30 04:43:46;;;;;;;5.28;1.55;;;18.10;72.10;;;;;;4964046;28;20385;-60
2022/09/30 04:46:16;;;;;;;3.35;1.40;;;18.10;72.10;;;;;;4963551;28;20066;-60
2022/09/30 04:48:44;;;;;;;4.90;1.33;;;18.10;72.10;;;;;;4960509;28;20396;-60
2022/09/30 04:51:14;;;;;;;4.45;1.27;;;18.10;72.10;;;;;;4960252;28;20027;-60
2022/09/30 04:53:39;;;;;;;3.75;1.63;;;18.10;72.10;;;;;;4959776;28;20034;-59
2022/09/30 04:56:05;;;;;;;3.80;1.20;;;18.10;72.10;;;;;;4958221;28;20046;-59
2022/09/30 04:58:34;;;;;;;4.90;1.52;;;18.10;72.00;;;;;;4967021;28;20519;-59
2022/09/30 05:01:07;;;;;;;3.65;1.30;;;18.10;72.00;;;;;;4961052;28;20042;-59
2022/09/30 05:03:33;;;;;;;2.97;1.30;;;18.10;72.10;;;;;;4963350;28;20046;-59
2022/09/30 05:05:59;;;;;;;4.60;1.45;;;18.10;72.00;;;;;;4961915;28;20039;-60
2022/09/30 05:08:25;;;;;;;2.22;1.23;;;18.10;72.00;;;;;;4961408;28;20403;-59
2022/09/30 05:10:57;;;;;;;2.42;1.20;;;18.00;72.00;;;;;;4963776;28;20106;-60
2022/09/30 05:13:24;;;;;;;3.17;1.35;;;18.00;72.00;;;;;;4958189;28;20046;-60
2022/09/30 05:15:50;;;;;;;3.05;1.20;;;18.00;72.00;;;;;;4960677;28;20419;-60
2022/09/30 05:18:17;;;;;;;4.18;1.30;;;18.00;72.00;;;;;;4963344;28;20078;-59
2022/09/30 05:20:42;;;;;;;4.75;1.20;;;18.00;72.00;;;;;;4963489;28;20085;-59
2022/09/30 05:23:08;;;;;;;4.63;1.30;;;18.00;72.00;;;;;;4970693;28;20054;-59
2022/09/30 05:25:34;;;;;;;2.50;1.00;;;18.00;72.00;;;;;;4962415;28;20118;-59
2022/09/30 05:28:00;;;;;;;4.10;1.20;;;18.00;72.00;;;;;;4963121;28;20034;-60
2022/09/30 05:30:26;;;;;;;3.20;1.13;;;18.00;72.00;;;;;;4964518;28;20055;-60
2022/09/30 05:32:52;;;;;;;4.53;1.42;;;18.00;72.00;;;;;;4964170;28;20082;-59
2022/09/30 05:35:17;;;;;;;3.05;1.20;;;18.00;72.00;;;;;;4959760;28;20054;-59
2022/09/30 05:37:43;;;;;;;4.20;1.38;;;18.00;72.00;;;;;;4961147;28;20027;-59
2022/09/30 05:40:09;;;;;;;3.03;1.20;;;18.00;72.00;;;;;;4962339;28;20050;-59
2022/09/30 05:42:34;;;;;;;3.60;1.30;;;18.00;71.90;;;;;;4959597;28;20454;-60
2022/09/30 05:45:01;;;;;;;3.15;1.35;;;18.00;72.00;;;;;;4959353;28;20050;-58
2022/09/30 05:47:26;;;;;;;4.72;1.42;;;18.00;71.90;;;;;;4960603;28;20045;-60
2022/09/30 05:49:52;;;;;;;2.42;1.30;;;18.00;71.90;;;;;;4958630;28;20027;-59
2022/09/30 05:52:18;;;;;;;3.05;1.10;;;17.90;71.80;;;;;;4960655;28;20023;-59
2022/09/30 05:54:44;;;;;;;5.03;1.30;;;17.90;71.80;;;;;;4957994;28;20031;-59
2022/09/30 05:57:10;;;;;;;2.60;1.25;;;18.00;71.90;;;;;;4959982;28;20030;-59
2022/09/30 05:59:36;;;;;;;2.00;1.00;;;17.90;71.90;;;;;;4962293;28;20495;-59
2022/09/30 06:02:03;;;;;;;2.65;1.20;;;17.90;71.80;;;;;;4960157;28;20622;-59
2022/09/30 06:04:28;;;;;;;5.72;1.30;;;17.90;71.80;;;;;;4960332;28;20019;-59
2022/09/30 06:06:54;;;;;;;3.88;1.23;;;17.90;71.80;;;;;;4961402;28;20351;-60
2022/09/30 06:09:20;;;;;;;2.90;1.30;;;17.90;71.80;;;;;;4957785;28;20178;-59
2022/09/30 06:11:45;;;;;;;2.97;1.05;;;17.90;71.80;;;;;;4960998;28;20019;-59
2022/09/30 06:14:11;;;;;;;3.50;1.42;;;17.90;71.80;;;;;;4961745;28;20105;-59
2022/09/30 06:16:36;;;;;;;3.25;1.15;;;17.90;71.70;;;;;;4964314;28;20049;-60
2022/09/30 06:19:02;;;;;;;2.40;1.08;;;17.90;71.80;;;;;;4959627;28;20062;-59
2022/09/30 06:21:28;;;;;;;2.88;1.10;;;17.90;71.80;;;;;;4958537;28;20015;-59
2022/09/30 06:23:53;;;;;;;3.63;1.20;;;17.90;71.70;;;;;;4960182;28;20045;-59
2022/09/30 06:26:19;;;;;;;3.20;1.13;;;17.90;71.70;;;;;;4958387;28;20034;-60
2022/09/30 06:28:45;;;;;;;2.38;1.10;;;17.90;71.70;;;;;;4961227;28;20033;-59
2022/09/30 06:31:10;;;;;;;3.85;1.23;;;17.90;71.70;;;;;;4960456;28;20073;-59
2022/09/30 06:33:36;;;;;;;2.17;1.17;;;17.90;71.80;;;;;;4963803;28;20043;-59
2022/09/30 06:36:03;;;;;;;2.47;1.10;;;17.90;71.70;;;;;;4958611;28;20026;-59
2022/09/30 06:38:30;;;;;;;3.00;1.10;;;17.80;71.70;;;;;;4957890;28;20039;-59
2022/09/30 06:40:58;;;;;;;4.07;1.30;;;17.80;71.70;;;;;;4958520;28;20050;-59
2022/09/30 06:43:24;;;;;;;2.65;1.23;;;17.80;71.70;;;;;;4959758;28;21682;-59
2022/09/30 06:45:50;;;;;;;4.75;1.02;;;17.80;71.70;;;;;;4963483;28;20047;-59
2022/09/30 06:48:16;;;;;;;4.00;1.20;;;17.80;71.70;;;;;;4958328;28;20517;-59
2022/09/30 06:50:41;;;;;;;3.92;1.38;;;17.80;71.70;;;;;;4961587;28;20062;-59
2022/09/30 06:53:07;;;;;;;2.88;1.02;;;17.80;71.70;;;;;;4960495;28;20022;-59
2022/09/30 06:55:37;;;;;;;2.50;1.05;;;17.80;71.70;;;;;;4957289;28;20035;-59
2022/09/30 06:58:03;;;;;;;2.15;1.20;;;17.80;71.70;;;;;;4957781;28;20059;-60
2022/09/30 07:00:29;;;;;;;3.25;1.00;;;17.80;71.70;;;;;;4959825;28;20094;-59
2022/09/30 07:02:58;;;;;;;2.67;1.25;;;17.80;71.70;;;;;;4960053;28;20027;-59
2022/09/30 07:05:26;;;;;;;3.55;1.23;;;17.80;71.70;;;;;;4958002;28;20089;-59
2022/09/30 07:07:52;;;;;;;3.13;1.20;;;17.80;71.70;;;;;;4960092;28;20042;-59
2022/09/30 07:10:18;;;;;;;2.58;1.10;;;17.80;71.70;;;;;;4958390;28;20129;-59
2022/09/30 07:12:47;;;;;;;2.05;1.17;;;17.80;71.70;;;;;;4959286;28;20137;-59
2022/09/30 07:15:13;;;;;;;2.67;1.00;;;17.80;72.70;;;;;;4962682;28;20498;-59
2022/09/30 07:17:39;;;;;;;2.95;1.00;;;17.70;71.60;;;;;;4962290;28;20030;-59
2022/09/30 07:20:05;;;;;;;1.90;1.10;;;17.80;71.70;;;;;;4959273;28;20042;-59
2022/09/30 07:22:33;;;;;;;4.57;1.30;;;17.70;71.70;;;;;;4962851;28;20030;-59
2022/09/30 07:24:59;;;;;;;3.00;1.23;;;17.70;71.60;;;;;;4961510;28;20467;-59
2022/09/30 07:27:28;;;;;;;2.67;1.20;;;17.80;71.80;;;;;;4959200;28;20023;-59
2022/09/30 07:29:54;;;;;;;3.30;1.10;;;17.80;71.70;;;;;;4963104;28;20060;-59
2022/09/30 07:32:20;;;;;;;1.45;0.98;;;17.80;71.80;;;;;;4966079;28;20035;-59
2022/09/30 07:34:46;;;;;;;2.25;1.08;;;17.80;71.70;;;;;;4963346;28;20031;-59
2022/09/30 07:37:13;;;;;;;3.97;1.48;;;17.80;71.80;;;;;;4964091;28;20561;-59
2022/09/30 07:39:43;;;;;;;2.28;1.10;;;17.90;72.30;;;;;;4965385;28;20023;-59
2022/09/30 07:42:09;;;;;;;14.77;1.63;;;17.90;72.10;;;;;;4962387;28;20610;-59
2022/09/30 07:44:40;;;;;;;6.18;1.17;;;17.90;72.30;;;;;;4959855;28;20097;-59
2022/09/30 07:47:07;;;;;;;2.65;1.33;;;17.90;72.20;;;;;;4959341;28;21118;-59
2022/09/30 07:49:33;;;;;;;4.40;1.42;;;17.90;72.30;;;;;;4962557;28;20034;-59
2022/09/30 07:51:59;;;;;;;3.83;1.38;;;17.90;72.20;;;;;;4965497;28;20035;-59
2022/09/30 07:54:29;;;;;;;4.35;1.20;;;17.90;72.20;;;;;;4961210;28;20027;-59
2022/09/30 07:56:55;;;;;;;3.50;1.20;;;17.90;72.20;;;;;;4957949;28;20071;-59
2022/09/30 07:59:21;;;;;;;4.40;1.30;;;17.80;72.10;;;;;;4957529;28;20049;-59
2022/09/30 08:01:46;;;;;;;4.07;1.20;;;17.90;72.20;;;;;;4965804;28;20155;-60
2022/09/30 08:04:12;;;;;;;8.13;1.50;;;17.90;72.10;;;;;;4961699;28;20057;-59
2022/09/30 08:06:48;;;;;;;6.20;1.23;;;17.90;72.10;;;;;;4957540;28;20043;-59
2022/09/30 08:09:15;;;;;;;3.95;1.50;;;17.90;72.10;;;;;;4963707;28;20023;-59
2022/09/30 08:11:41;;;;;;;3.22;1.15;;;17.90;72.10;;;;;;4956707;28;20110;-59
2022/09/30 08:14:07;;;;;;;3.35;1.58;;;17.90;72.00;;;;;;4962793;28;20054;-59
2022/09/30 08:16:33;;;;;;;3.70;1.40;;;17.90;72.10;;;;;;4965949;28;20495;-59
2022/09/30 08:19:00;;;;;;;3.42;1.40;;;17.90;72.00;;;;;;4965698;28;20018;-59
2022/09/30 08:21:26;;;;;;;2.50;1.27;;;17.90;71.90;;;;;;4963553;28;20597;-59
2022/09/30 08:23:52;;;;;;;2.30;1.40;;;17.90;71.90;;;;;;4961343;28;20042;-59
2022/09/30 08:26:18;;;;;;;3.72;1.30;;;17.90;71.90;;;;;;4965397;28;20499;-58
2022/09/30 08:28:45;;;;;;;4.60;1.60;;;17.90;71.90;;;;;;4960672;28;20031;-59
2022/09/30 08:31:17;;;;;;;3.13;1.45;;;17.90;71.80;;;;;;4960335;28;20411;-59
2022/09/30 08:33:43;;;;;;;4.78;1.27;;;18.00;71.90;;;;;;4962986;28;20093;-59
2022/09/30 08:36:16;;;;;;;3.85;1.23;;;17.90;71.80;;;;;;4963113;28;20031;-59
2022/09/30 08:38:42;;;;;;;5.07;1.43;;;17.90;71.80;;;;;;4962039;28;20019;-59
2022/09/30 08:41:27;;;;;;;2.63;1.30;;;18.00;71.80;;;;;;4961959;28;20200;-59
2022/09/30 08:44:00;;;;;;;2.15;1.10;;;18.00;71.80;;;;;;4962018;28;20038;-59
2022/09/30 08:46:48;;;;;;;3.30;1.27;;;18.00;71.80;;;;;;4957982;28;20129;-59
2022/09/30 08:49:48;;;;;;;3.25;1.20;;;18.00;71.80;;;;;;4963700;28;20027;-59
2022/09/30 08:52:30;;;;;;;4.07;1.30;;;18.00;71.70;;;;;;4955956;28;20046;-59
2022/09/30 08:54:56;;;;;;;2.47;1.20;;;18.00;71.70;;;;;;4969179;28;20035;-59
2022/09/30 08:57:21;;;;;;;4.10;1.40;;;18.00;71.70;;;;;;4968605;28;20247;-59
2022/09/30 08:59:50;;;;;;;5.30;1.30;;;18.00;71.70;;;;;;4967171;28;20500;-59
2022/09/30 09:02:29;;;;;;;4.47;1.42;;;18.00;71.60;;;;;;4953864;28;20546;-59
2022/09/30 09:04:59;;;;;;;3.42;1.50;;;18.00;71.60;;;;;;4967428;28;20086;-59
2022/09/30 09:07:43;;;;;;;3.35;1.30;;;18.00;71.60;;;;;;4953111;28;20030;-59
2022/09/30 09:10:22;;;;;;;3.78;1.25;;;18.00;71.60;;;;;;4937097;28;20031;-59
2022/09/30 09:12:54;;;;;;;4.20;1.38;;;18.00;71.60;;;;;;4953209;28;20030;-59
2022/09/30 09:15:25;;;;;;;2.67;1.30;;;18.00;71.60;;;;;;4968908;28;20027;-59
2022/09/30 09:18:10;;;;;;;3.78;1.40;;;18.00;71.70;;;;;;4968507;28;20034;-59
2022/09/30 09:20:40;;;;;;;3.17;1.10;;;18.00;71.80;;;;;;4967907;28;20173;-59
2022/09/30 09:23:09;;;;;;;4.43;1.30;;;18.00;71.70;;;;;;4953216;28;20073;-59
2022/09/30 09:25:34;;;;;;;2.80;1.30;;;18.00;71.80;;;;;;4936128;28;20417;-59
2022/09/30 09:28:01;;;;;;;3.42;1.45;;;17.90;71.70;;;;;;4968339;28;20035;-59
2022/09/30 09:30:38;;;;;;;3.03;1.38;;;18.00;71.80;;;;;;4964017;28;20129;-59
2022/09/30 09:33:21;;;;;;;4.97;1.30;;;18.00;71.70;;;;;;4962473;28;20039;-59
2022/09/30 09:36:00;;;;;;;3.05;1.20;;;18.00;71.80;;;;;;4968906;28;20031;-59
2022/09/30 09:38:39;;;;;;;5.07;1.40;;;17.90;71.70;;;;;;4966300;28;20117;-59
2022/09/30 09:41:45;;;;;;;2.63;1.30;;;18.00;71.80;;;;;;4958858;28;20019;-59
2022/09/30 09:44:19;;;;;;;4.57;1.40;;;17.90;71.70;;;;;;4930201;29;20068;-59
2022/09/30 09:47:13;;;;;;;6.32;1.30;;;17.90;71.70;;;;;;4941547;28;20471;-59
2022/09/30 09:49:45;;;;;;;3.33;1.30;;;18.00;71.80;;;;;;4935402;29;20036;-59
2022/09/30 09:52:11;;;;;;;4.80;1.38;;;18.00;71.80;;;;;;4931656;29;20115;-59
2022/09/30 09:54:42;;;;;;;4.03;1.50;;;17.90;71.70;;;;;;4941266;28;20528;-59
2022/09/30 09:57:14;;;;;;;3.33;1.38;;;18.00;71.80;;;;;;4941595;29;20027;-59
2022/09/30 09:59:54;;;;;;;3.17;1.10;;;18.00;71.80;;;;;;4941617;29;20054;-59
2022/09/30 10:02:24;;;;;;;2.67;1.30;;;18.00;71.70;;;;;;4938254;29;20067;-59
2022/09/30 10:04:58;;;;;;;4.00;1.40;;;18.00;71.80;;;;;;4937481;29;20043;-59
2022/09/30 10:07:24;;;;;;;3.55;1.20;;;18.00;71.80;;;;;;4941127;28;20078;-60
2022/09/30 10:09:50;;;;;;;3.58;1.38;;;18.00;71.70;;;;;;4939122;29;20031;-59
2022/09/30 10:12:25;;;;;;;3.60;1.40;;;18.00;71.80;;;;;;4938854;29;20115;-59
2022/09/30 10:15:10;;;;;;;4.40;1.10;;;18.00;71.70;;;;;;4942257;29;20094;-59
2022/09/30 10:17:36;;;;;;;5.03;1.50;;;18.00;71.70;;;;;;4946524;28;20065;-59
2022/09/30 10:20:15;;;;;;;3.35;1.13;;;18.10;71.70;;;;;;4941722;28;20063;-59
2022/09/30 10:22:41;;;;;;;3.47;1.40;;;18.00;71.80;;;;;;4959224;28;20093;-59
2022/09/30 10:25:25;;;;;;;2.95;1.40;;;18.00;71.70;;;;;;4965044;28;20038;-59
2022/09/30 10:27:53;;;;;;;4.13;1.40;;;18.00;71.80;;;;;;4962167;28;20558;-59
2022/09/30 10:30:55;;;;;;;4.25;1.20;;;18.00;71.80;;;;;;4960492;28;20517;-59
2022/09/30 10:33:26;;;;;;;5.40;1.65;;;18.00;71.80;;;;;;4911050;29;20047;-59
2022/09/30 10:36:06;;;;;;;3.53;1.40;;;18.00;71.80;;;;;;4926665;29;20048;-59
2022/09/30 10:38:33;;;;;;;3.00;1.25;;;18.00;71.80;;;;;;4912475;29;20040;-59
2022/09/30 10:40:59;;;;;;;3.35;1.30;;;18.00;71.70;;;;;;4912498;29;20036;-59
2022/09/30 10:43:40;;;;;;;3.47;1.40;;;18.00;71.70;;;;;;4911770;29;20046;-59
2022/09/30 10:46:07;;;;;;;1.70;1.13;;;18.00;71.80;;;;;;4912640;29;20090;-59
2022/09/30 10:48:34;;;;;;;3.67;1.50;;;18.00;71.90;;;;;;4911598;29;20095;-59
2022/09/30 10:50:59;;;;;;;2.00;1.20;;;18.00;72.00;;;;;;4925034;29;20035;-58
2022/09/30 10:53:28;;;;;;;5.03;1.40;;;18.00;71.90;;;;;;4924504;29;20509;-59
2022/09/30 10:55:54;;;;;;;3.65;1.50;;;18.00;71.90;;;;;;4925952;29;20135;-59
2022/09/30 10:58:49;;;;;;;3.20;1.40;;;18.00;71.90;;;;;;4896669;29;20441;-60
2022/09/30 11:01:24;;;;;;;3.57;1.27;;;18.00;71.90;;;;;;4922774;29;20501;-59
2022/09/30 11:04:00;;;;;;;2.97;1.27;;;18.00;71.90;;;;;;4922763;29;20040;-59
2022/09/30 11:06:28;;;;;;;3.80;1.33;;;18.00;71.90;;;;;;4924151;29;20468;-59
2022/09/30 11:09:01;;;;;;;4.10;1.33;;;18.00;71.90;;;;;;4929758;28;20134;-59
2022/09/30 11:11:28;;;;;;;2.13;1.13;;;18.00;71.80;;;;;;4956824;28;20416;-59
2022/09/30 11:14:34;;;;;;;2.15;1.13;;;18.00;71.90;;;;;;4940432;28;20025;-59
2022/09/30 11:17:12;;;;;;;3.30;1.30;;;18.00;71.90;;;;;;4957473;28;20870;-59
2022/09/30 11:20:18;;;;;;;3.05;1.20;;;18.00;71.80;;;;;;4958256;28;20480;-59
2022/09/30 11:22:56;;;;;;;4.10;1.13;;;18.00;71.90;;;;;;4956394;28;20047;-59
2022/09/30 11:25:26;;;;;;;2.22;1.15;;;18.00;71.80;;;;;;4948447;28;20058;-59
2022/09/30 11:28:01;;;;;;;3.42;1.33;;;18.00;71.80;;;;;;4945270;28;20027;-59
2022/09/30 11:30:51;;;;;;;2.28;1.30;;;18.00;71.90;;;;;;4957411;28;20051;-59
2022/09/30 11:33:21;;;;;;;2.85;1.30;;;18.00;71.80;;;;;;4947315;28;20089;-59
2022/09/30 11:35:46;;;;;;;2.83;1.30;;;18.00;71.70;;;;;;4958171;28;20065;-59
2022/09/30 11:38:21;;;;;;;4.32;1.38;;;18.00;71.80;;;;;;4957289;28;20039;-59
2022/09/30 11:41:08;;;;;;;3.88;1.25;;;18.00;71.80;;;;;;4948892;28;20113;-59
2022/09/30 11:43:40;;;;;;;2.75;1.20;;;18.00;71.80;;;;;;4955154;28;20483;-59
2022/09/30 11:46:08;;;;;;;2.70;1.42;;;18.00;71.80;;;;;;4955644;28;20043;-59
2022/09/30 11:49:00;;;;;;;3.55;1.42;;;18.00;71.80;;;;;;4958289;28;20059;-59
2022/09/30 11:52:04;;;;;;;4.65;1.33;;;18.00;71.80;;;;;;4947791;28;20105;-59
2022/09/30 11:54:29;;;;;;;3.05;1.25;;;18.00;71.80;;;;;;4949102;28;20031;-59
2022/09/30 11:56:58;;;;;;;3.88;1.25;;;18.00;71.70;;;;;;4954669;28;20038;-59
2022/09/30 11:59:43;;;;;;;1.67;1.10;;;18.00;71.80;;;;;;4957404;28;20046;-59
2022/09/30 12:02:25;;;;;;;4.93;1.15;;;18.00;71.70;;;;;;4978250;28;20104;-59
2022/09/30 12:04:52;;;;;;;3.90;1.40;;;18.00;71.70;;;;;;4942359;28;20027;-59
2022/09/30 12:07:20;;;;;;;3.00;1.25;;;18.00;71.70;;;;;;4940728;28;20023;-59
2022/09/30 12:09:57;;;;;;;3.97;1.30;;;18.00;71.60;;;;;;4954842;28;20093;-59
2022/09/30 12:12:23;;;;;;;4.05;1.35;;;18.00;71.70;;;;;;4947281;28;20381;-59
2022/09/30 12:14:49;;;;;;;3.33;1.50;;;18.00;71.70;;;;;;4957456;28;20048;-59
2022/09/30 12:17:44;;;;;;;3.78;1.20;;;18.00;71.70;;;;;;4962722;28;20027;-59
2022/09/30 12:20:27;;;;;;;1.73;1.17;;;18.00;71.80;;;;;;4941037;28;20059;-59
2022/09/30 12:23:14;;;;;;;3.50;1.20;;;18.00;71.80;;;;;;4960911;28;20039;-59
2022/09/30 12:25:49;;;;;;;3.80;1.10;;;18.00;71.70;;;;;;4960644;28;20035;-59
2022/09/30 12:31:40;;;;;;;3.92;1.38;;;18.00;71.70;;;;;;4962356;28;20086;-59
2022/09/30 12:34:15;;;;;;;2.55;1.10;;;18.00;71.60;;;;;;4962066;28;20066;-59
2022/09/30 12:37:19;;;;;;;3.90;1.42;;;18.00;71.70;;;;;;4956853;28;20059;-59
2022/09/30 12:39:53;;;;;;;2.38;1.20;;;18.00;71.60;;;;;;4899976;29;20082;-59
2022/09/30 12:42:38;;;;;;;4.47;1.30;;;18.10;71.60;;;;;;4906274;29;20180;-59
2022/09/30 12:45:22;;;;;;;2.57;1.50;;;18.00;71.70;;;;;;4906066;29;20056;-59
2022/09/30 12:47:48;;;;;;;3.63;1.30;;;18.00;71.60;;;;;;4906220;29;20299;-59
2022/09/30 12:50:17;;;;;;;4.35;1.60;;;18.10;71.50;;;;;;4903144;29;20028;-59
2022/09/30 12:52:43;;;;;;;3.72;1.30;;;18.10;71.50;;;;;;4886865;29;20036;-59
2022/09/30 12:55:21;;;;;;;3.78;1.27;;;18.10;71.50;;;;;;4907286;29;20028;-59
2022/09/30 12:57:47;;;;;;;3.95;1.25;;;18.10;71.50;;;;;;4889941;29;20138;-59
2022/09/30 13:00:13;;;;;;;4.32;1.38;;;18.10;71.50;;;;;;4889278;29;20485;-59
2022/09/30 13:02:40;;;;;;;2.75;1.23;;;18.10;72.50;;;;;;4905560;29;20118;-59
2022/09/30 13:05:31;;;;;;;3.45;1.38;;;18.10;71.50;;;;;;4893769;29;20036;-59
2022/09/30 13:08:02;;;;;;;2.75;1.30;;;18.10;71.40;;;;;;4907693;29;20024;-59
2022/09/30 13:11:11;;;;;;;2.90;1.13;;;18.10;71.40;;;;;;4906155;29;20104;-59
2022/09/30 13:14:01;;;;;;;5.70;1.63;;;18.10;71.40;;;;;;4908925;29;20062;-59
2022/09/30 13:17:05;;;;;;;7.15;1.65;;;18.10;71.40;;;;;;4922808;28;20488;-59